This is the latest recevied weather packets stored in our database for station/object IU0KRR-10. If no packets are shown the sender has not sent any weather packets the latest 10 day(s).
| Time | Temp. | Humidity | Pressure | Rain* | Wind** | Luminosity | Snow |
|---|---|---|---|---|---|---|---|
| 1777845513 | 24.44° C | 26% | 875.9 hPa | - | - | - | - |
| 1777844613 | 24.44° C | 26% | 875.9 hPa | - | - | - | - |
| 1777843712 | 25° C | 25% | 875.8 hPa | - | - | - | - |
| 1777842812 | 25° C | 26% | 875.8 hPa | - | - | - | - |
| 1777841912 | 25.56° C | 26% | 875.8 hPa | - | - | - | - |
| 1777841012 | 25.56° C | 26% | 875.7 hPa | - | - | - | - |
| 1777840112 | 25.56° C | 26% | 875.6 hPa | - | - | - | - |
| 1777839212 | 25.56° C | 25% | 875.6 hPa | - | - | - | - |
| 1777838312 | 25° C | 26% | 875.7 hPa | - | - | - | - |
| 1777837412 | 25° C | 26% | 875.6 hPa | - | - | - | - |
| 1777836511 | 25° C | 25% | 875.5 hPa | - | - | - | - |
| 1777835611 | 24.44° C | 24% | 875.5 hPa | - | - | - | - |
| 1777834710 | 24.44° C | 24% | 875.4 hPa | - | - | - | - |
| 1777833810 | 24.44° C | 24% | 875.2 hPa | - | - | - | - |
| 1777832910 | 23.89° C | 25% | 875.3 hPa | - | - | - | - |
| 1777832005 | 23.89° C | 26% | 875.2 hPa | - | - | - | - |
| 1777831105 | 23.33° C | 26% | 875.1 hPa | - | - | - | - |
| 1777830205 | 22.22° C | 26% | 875.2 hPa | - | - | - | - |
| 1777829305 | 21.11° C | 27% | 875.1 hPa | - | - | - | - |
| 1777828405 | 19.44° C | 29% | 875.1 hPa | - | - | - | - |
| 1777827505 | 17.22° C | 33% | 873.9 hPa | - | - | - | - |
| 1777826655 | 18.33° C | 33% | 873.8 hPa | - | - | - | - |
| 1777826605 | 18.33° C | 33% | 873.8 hPa | - | - | - | - |
| 1777825705 | 19.44° C | 30% | 874 hPa | - | - | - | - |
| 1777824804 | 23.33° C | 26% | 874 hPa | - | - | - | - |
* Rain since midnight (hover to see other rain measurements)
** Current wind speed in m/s (hover to see current wind gust speed)